Flight Track Log - Related Links

Times and Time Zones

All times are in EST time to prevent confusion due to time zone crossing. See the N449ND flight status page for this flight to view local times or setup timezone preferences in your user account.

Time Position Orientation Groundspeed Altitude Reporting Facility
EST Latitude Longitude Course Direction KTS MPH feet Rate Location/Type
Mon 11:14:29 AM 27.4972 -80.4039 274° West 96 110 900  Level Miami Center
Mon 11:15:29 AM 27.4986 -80.4272 274° West 85 98 1,500 650 Climbing Miami Center
Mon 11:16:29 AM 27.4958 -80.4553 264° West 85 98 2,200 650 Climbing Miami Center
Mon 11:17:29 AM 27.4972 -80.4811 273° West 85 98 2,800 400 Climbing Miami Center
Mon 11:18:29 AM 27.4989 -80.5044 275° West 85 98 3,000 150 Climbing Miami Center
Mon 11:19:29 AM 27.4836 -80.5250 230° Southwest 85 98 3,100  Climbing Miami Center
Mon 11:20:29 AM 27.4633 -80.5011 134° Southeast 79 91 3,000 -100 Descending Miami Center
Mon 11:21:29 AM 27.4497 -80.4656 113° Southeast 112 129 2,900  Descending Miami Center
Mon 11:22:29 AM 27.4381 -80.4325 112° Southeast 118 136 3,000 300 Climbing Miami Center
Mon 11:23:29 AM 27.4281 -80.4086 115° Southeast 107 123 3,500 450 Climbing Miami Center
Mon 11:24:29 AM 27.4350 -80.3808 74° East 94 108 3,900 250 Climbing Miami Center
Mon 11:25:29 AM 27.4547 -80.3486 55° Northeast 99 114 4,000 50 Climbing Miami Center
Mon 11:26:29 AM 27.4719 -80.3211 55° Northeast 105 121 4,000  Level Miami Center
Mon 11:27:29 AM 27.4936 -80.2936 48° Northeast 111 128 4,000 -100 Level Miami Center
Mon 11:28:29 AM 27.5128 -80.2708 47° Northeast 106 122 3,800 -450 Descending Miami Center
Mon 11:29:29 AM 27.5383 -80.2458 41° Northeast 106 122 3,100 -450 Descending Miami Center
Mon 11:30:29 AM 27.5658 -80.2350 19° North 101 116 2,900 -500 Descending Miami Center
Mon 11:31:29 AM 27.5842 -80.2542 317° Northwest 83 96 2,100 -550 Descending Miami Center
Mon 11:32:29 AM 27.5983 -80.2781 304° West 98 113 1,800 -150 Descending Miami Center
Mon 11:33:29 AM 27.6144 -80.3019 307° West 106 122 1,800 -100 Level Miami Center
Mon 11:34:29 AM 27.6261 -80.3350 292° West 101 116 1,600 -350 Descending Miami Center
Mon 11:35:29 AM 27.6358 -80.3658 290° West 101 116 1,100 -600 Descending Miami Center
Mon 11:36:29 AM 27.6436 -80.3919 289° West 96 110 400 -300 Descending Miami Center
Mon 11:37:29 AM 27.6514 -80.4156 290° West 91 105 500 458 Climbing Miami Center
Mon 11:38:53 AM 27.6503 -80.4531 268° West 85 98 1,500 667 Climbing Miami Center
Mon 11:39:53 AM 27.6475 -80.4789 263° West 85 98 2,100 750 Climbing Miami Center
Mon 11:40:53 AM 27.6428 -80.5019 257° West 85 98 3,000 450 Climbing Miami Center
Mon 11:41:53 AM 27.6358 -80.5300 254° West 86 99 3,000  Level Miami Center
Mon 11:42:53 AM 27.6147 -80.5433 209° Southwest 86 99 3,000  Level Miami Center
Mon 11:43:53 AM 27.5989 -80.5122 120° Southeast 72 83 3,000  Level Miami Center
Mon 11:44:53 AM 27.5892 -80.4792 108° East 97 112 3,000  Level Miami Center
Mon 11:45:53 AM 27.5794 -80.4461 108° East 108 124 3,000  Level Miami Center
Mon 11:46:53 AM 27.5681 -80.4061 108° East 116 133 3,000  Level Miami Center
Mon 11:47:53 AM 27.5564 -80.3728 112° Southeast 116 133 3,000  Level Miami Center
Mon 11:48:53 AM 27.5467 -80.3375 107° East 111 128 3,000  Level Miami Center
Mon 11:49:53 AM 27.5369 -80.3089 111° Southeast 111 128 3,000  Level Miami Center
Mon 11:50:53 AM 27.5253 -80.2689 108° East 111 128 3,000 -250 Level Miami Center
Mon 11:51:53 AM 27.5261 -80.2383 88° East 103 119 2,500 -500 Descending Miami Center
Mon 11:52:53 AM 27.5536 -80.2253 23° Northeast 80 92 2,000 -250 Descending Miami Center
Mon 11:53:53 AM 27.5786 -80.2236 North 94 108 2,000 -100 Level Miami Center
Mon 11:54:53 AM 27.5928 -80.2475 304° West 89 102 1,800 -100 Descending Miami Center
Mon 11:55:53 AM 27.6044 -80.2806 292° West 97 112 1,800  Level Miami Center
Mon 11:56:53 AM 27.6183 -80.3114 297° West 109 125 1,800 -100 Level Miami Center
Mon 11:57:53 AM 27.6281 -80.3375 293° West 109 125 1,600 -300 Descending Miami Center
Mon 11:58:53 AM 27.6339 -80.3611 286° West 95 109 1,200 -450 Descending Miami Center
Mon 11:59:53 AM 27.6436 -80.3894 291° West 95 109 700  Descending Miami Center
Mon 12:01:41 PM 27.6592 -80.4392 285° West 89 102 1,200 393 Climbing Miami Center
Mon 12:02:41 PM 27.6628 -80.4628 280° West 89 102 1,800 600 Climbing Miami Center
Mon 12:04:00 PM 27.6564 -80.4397 107° East  Level FlightAware Approximate
Mon 12:11:00 PM 27.6500 -80.4167 90° East  Level FlightAware Approximate
Mon 12:12:00 PM 27.6556 -80.4179 90° East  Level Estimated
Mon 12:13:00 PM 27.6500 -80.4167 90° East  Level FlightAware Approximate
Mon 12:14:00 PM 27.6556 -80.4179 90° East  Level Estimated
Mon 12:15:00 PM 27.6500 -80.4167 90° East  Level FlightAware Approximate
Mon 12:16:00 PM 27.6556 -80.4179 90° East  Level Estimated
Mon 12:17:00 PM 27.6500 -80.4167 90° East  Level FlightAware Approximate
Mon 12:18:00 PM 27.6556 -80.4179 90° East  Level Estimated
Mon 12:19:00 PM 27.6500 -80.4167 90° East  Level FlightAware Approximate
Mon 12:20:00 PM 27.6556 -80.4179 90° East  Level Estimated

Login

Don't have an account? Register now (free) for customized features, flight alerts, and more!